createdAt,value
2018-10-17T00:02:07.703Z,62.70
2018-10-17T00:04:36.248Z,62.90
2018-10-17T00:07:05.153Z,63.30
2018-10-17T00:09:34.311Z,63.80
2018-10-17T00:12:03.094Z,63.90
2018-10-17T00:14:32.767Z,64.70
2018-10-17T00:17:01.463Z,65.40
2018-10-17T00:19:30.038Z,65.80
2018-10-17T00:21:58.588Z,65.50
2018-10-17T00:24:27.170Z,65.70
2018-10-17T00:26:55.704Z,65.00
2018-10-17T00:29:24.318Z,64.80
2018-10-17T00:31:52.842Z,65.00
2018-10-17T00:34:22.112Z,64.90
2018-10-17T00:36:50.639Z,64.90
2018-10-17T00:39:19.212Z,64.40
2018-10-17T00:41:48.560Z,64.40
2018-10-17T00:44:17.081Z,64.00
2018-10-17T00:46:45.884Z,63.90
2018-10-17T00:49:14.514Z,63.90
2018-10-17T00:51:42.978Z,63.70
2018-10-17T00:54:11.546Z,63.40
2018-10-17T00:56:40.441Z,63.70
2018-10-17T00:59:11.193Z,63.40
2018-10-17T01:01:40.079Z,62.90
2018-10-17T01:04:09.015Z,63.80
2018-10-17T01:06:38.304Z,63.70
2018-10-17T01:09:10.409Z,63.80
2018-10-17T01:11:39.548Z,64.10
2018-10-17T01:14:08.462Z,63.30
2018-10-17T01:16:36.999Z,63.50
2018-10-17T01:19:06.119Z,63.90
2018-10-17T01:21:35.548Z,64.30
2018-10-17T01:24:04.453Z,63.50
2018-10-17T01:26:33.341Z,64.10
2018-10-17T01:29:01.985Z,63.60
2018-10-17T01:31:30.628Z,63.60
2018-10-17T01:33:59.665Z,62.60
2018-10-17T01:36:28.231Z,63.50
2018-10-17T01:38:56.771Z,63.30
2018-10-17T01:41:25.521Z,64.70
2018-10-17T01:43:54.639Z,65.30
2018-10-17T01:46:23.192Z,64.80
2018-10-17T01:48:52.608Z,64.00
2018-10-17T01:51:21.159Z,64.80
2018-10-17T01:53:49.820Z,65.20
2018-10-17T01:56:18.341Z,65.40
2018-10-17T01:58:46.913Z,65.00
2018-10-17T02:01:15.712Z,65.00
2018-10-17T02:03:44.233Z,65.00
2018-10-17T02:06:12.834Z,64.50
2018-10-17T02:08:41.426Z,64.70
2018-10-17T02:11:09.998Z,64.60
2018-10-17T02:13:39.236Z,64.40
2018-10-17T02:16:07.815Z,64.50
2018-10-17T02:18:36.348Z,64.20
2018-10-17T02:21:05.305Z,64.10
2018-10-17T02:23:33.892Z,64.00
2018-10-17T02:26:02.580Z,64.10
2018-10-17T02:28:31.132Z,63.50
2018-10-17T02:30:59.901Z,64.60
2018-10-17T02:33:28.579Z,64.90
2018-10-17T02:35:57.128Z,64.40
2018-10-17T02:38:25.918Z,64.10
2018-10-17T02:40:54.481Z,63.70
2018-10-17T02:43:23.089Z,64.10
2018-10-17T02:45:51.650Z,64.30
2018-10-17T02:48:20.513Z,63.80
2018-10-17T02:50:49.213Z,64.50
2018-10-17T02:53:17.785Z,65.60
2018-10-17T02:55:46.351Z,65.60
2018-10-17T02:58:14.863Z,66.80
2018-10-17T03:00:43.427Z,67.40
2018-10-17T03:03:12.152Z,66.40
2018-10-17T03:05:40.699Z,67.00
2018-10-17T03:08:09.477Z,66.50
2018-10-17T03:10:38.046Z,66.40
2018-10-17T03:13:06.726Z,65.80
2018-10-17T03:15:35.380Z,65.70
2018-10-17T03:18:04.060Z,65.90
2018-10-17T03:20:32.729Z,65.70
2018-10-17T03:23:01.402Z,65.70
2018-10-17T03:25:30.596Z,65.70
2018-10-17T03:27:59.272Z,65.70
2018-10-17T03:30:29.112Z,65.70
2018-10-17T03:32:57.744Z,65.80
2018-10-17T03:35:26.262Z,65.80
2018-10-17T03:37:54.835Z,65.70
2018-10-17T03:40:23.602Z,65.60
2018-10-17T03:42:52.187Z,65.00
2018-10-17T03:45:20.728Z,65.00
2018-10-17T03:47:49.311Z,64.60
2018-10-17T03:50:17.893Z,64.80
2018-10-17T03:52:46.493Z,65.00
2018-10-17T03:55:15.099Z,65.20
2018-10-17T03:57:43.746Z,64.80
2018-10-17T04:00:12.940Z,64.90
2018-10-17T04:02:41.476Z,64.70
2018-10-17T04:05:10.163Z,64.60
2018-10-17T04:07:38.700Z,64.60
2018-10-17T04:10:08.160Z,64.30
2018-10-17T04:12:36.695Z,64.50
2018-10-17T04:15:06.042Z,64.70
2018-10-17T04:17:34.772Z,64.60
2018-10-17T04:20:03.662Z,64.60
2018-10-17T04:22:32.257Z,64.70
2018-10-17T04:25:01.023Z,64.70
2018-10-17T04:27:29.646Z,64.00
2018-10-17T04:29:58.230Z,65.40
2018-10-17T04:32:26.801Z,65.60
2018-10-17T04:34:55.649Z,65.90
2018-10-17T04:37:24.462Z,65.40
2018-10-17T04:39:53.033Z,65.60
2018-10-17T04:42:21.605Z,65.40
2018-10-17T04:44:50.201Z,65.40
2018-10-17T04:47:19.060Z,65.40
2018-10-17T04:49:47.605Z,65.40
2018-10-17T04:52:16.141Z,65.40
2018-10-17T04:54:44.691Z,65.40
2018-10-17T04:57:13.333Z,65.40
2018-10-17T04:59:41.933Z,65.40
2018-10-17T05:02:10.515Z,65.40
2018-10-17T05:04:39.185Z,65.40
2018-10-17T05:07:08.075Z,65.40
2018-10-17T05:09:36.598Z,65.30
2018-10-17T05:12:05.446Z,65.30
2018-10-17T05:14:34.079Z,65.30
2018-10-17T05:17:03.004Z,65.60
2018-10-17T05:19:31.709Z,65.50
2018-10-17T05:22:00.335Z,65.30
2018-10-17T05:24:28.887Z,65.30
2018-10-17T05:26:57.490Z,65.40
2018-10-17T05:29:26.341Z,65.60
2018-10-17T05:31:54.970Z,65.30
2018-10-17T05:34:23.683Z,65.30
2018-10-17T05:36:52.301Z,65.30
2018-10-17T05:39:20.842Z,65.30
2018-10-17T05:41:49.429Z,65.30
2018-10-17T05:44:18.204Z,65.60
2018-10-17T05:46:46.765Z,65.80
2018-10-17T05:49:16.200Z,65.90
2018-10-17T05:51:44.827Z,65.80
2018-10-17T05:54:13.376Z,66.00
2018-10-17T05:56:41.996Z,65.30
2018-10-17T05:59:10.660Z,65.20
2018-10-17T06:01:39.308Z,66.40
2018-10-17T06:04:08.362Z,67.00
2018-10-17T06:06:36.974Z,66.90
2018-10-17T06:09:07.810Z,66.80
2018-10-17T06:11:36.435Z,66.80
2018-10-17T06:14:05.360Z,66.60
2018-10-17T06:16:33.984Z,66.40
2018-10-17T06:19:02.526Z,66.30
2018-10-17T06:21:31.212Z,66.10
2018-10-17T06:23:59.770Z,65.50
2018-10-17T06:26:28.364Z,65.50
2018-10-17T06:28:57.212Z,65.60
2018-10-17T06:31:26.338Z,66.20
2018-10-17T06:33:55.316Z,65.60
2018-10-17T06:36:23.874Z,65.40
2018-10-17T06:38:53.485Z,65.60
2018-10-17T06:41:23.665Z,65.00
2018-10-17T06:43:53.008Z,65.30
2018-10-17T06:46:21.760Z,65.00
2018-10-17T06:48:50.406Z,65.10
2018-10-17T06:51:19.071Z,64.90
2018-10-17T06:53:47.708Z,64.50
2018-10-17T06:56:16.320Z,64.80
2018-10-17T06:58:45.605Z,64.80
2018-10-17T07:01:14.480Z,64.80
2018-10-17T07:03:43.474Z,64.70
2018-10-17T07:06:12.073Z,64.60
2018-10-17T07:08:40.641Z,64.70
2018-10-17T07:11:09.391Z,64.60
2018-10-17T07:13:37.932Z,64.50
2018-10-17T07:16:06.840Z,64.80
2018-10-17T07:18:35.591Z,64.20
2018-10-17T07:21:04.890Z,64.10
2018-10-17T07:23:33.712Z,63.80
2018-10-17T07:26:02.509Z,63.80
2018-10-17T07:28:31.152Z,63.30
2018-10-17T07:30:59.894Z,63.30
2018-10-17T07:33:28.830Z,63.20
2018-10-17T07:35:57.363Z,63.10
2018-10-17T07:38:25.969Z,62.70
2018-10-17T07:40:54.546Z,62.30
2018-10-17T07:43:23.128Z,62.30
2018-10-17T07:45:51.683Z,62.40
2018-10-17T07:48:20.406Z,62.50
2018-10-17T07:50:49.247Z,61.90
2018-10-17T07:53:17.879Z,60.90
2018-10-17T07:55:46.466Z,60.60
2018-10-17T07:58:15.183Z,60.30
2018-10-17T08:00:43.863Z,60.50
2018-10-17T08:03:12.463Z,59.50
2018-10-17T08:05:41.117Z,58.90
2018-10-17T08:08:09.759Z,58.60
2018-10-17T08:10:38.404Z,57.80
2018-10-17T08:13:07.191Z,58.00
2018-10-17T08:15:35.795Z,57.20
2018-10-17T08:18:04.639Z,56.10
2018-10-17T08:20:33.261Z,55.50
2018-10-17T08:23:01.936Z,54.80
2018-10-17T08:25:30.580Z,54.20
2018-10-17T08:27:59.192Z,54.10
2018-10-17T08:30:28.159Z,53.70
2018-10-17T08:32:56.747Z,52.60
2018-10-17T08:35:25.432Z,52.10
2018-10-17T08:37:54.367Z,53.30
2018-10-17T08:40:23.107Z,52.30
2018-10-17T08:42:51.825Z,51.70
2018-10-17T08:45:20.508Z,51.20
2018-10-17T08:47:49.060Z,50.90
2018-10-17T08:50:17.793Z,50.50
2018-10-17T08:52:46.237Z,50.20
2018-10-17T08:55:14.793Z,49.40
2018-10-17T08:57:43.405Z,48.80
2018-10-17T09:00:12.116Z,48.20
2018-10-17T09:02:40.653Z,47.80
2018-10-17T09:05:09.283Z,47.00
2018-10-17T09:07:37.944Z,46.70
2018-10-17T09:10:07.255Z,46.80
2018-10-17T09:12:35.819Z,46.80
2018-10-17T09:15:04.669Z,46.00
2018-10-17T09:17:33.304Z,45.00
2018-10-17T09:20:02.165Z,44.50
2018-10-17T09:22:30.538Z,44.10
2018-10-17T09:25:00.045Z,43.70
2018-10-17T09:27:28.785Z,43.10
2018-10-17T09:29:57.394Z,43.00
2018-10-17T09:32:25.976Z,42.40
2018-10-17T09:34:54.607Z,41.70
2018-10-17T09:37:23.361Z,40.80
2018-10-17T09:39:52.235Z,40.90
2018-10-17T09:42:21.953Z,41.10
2018-10-17T09:44:50.504Z,41.10
2018-10-17T09:47:19.087Z,41.20
2018-10-17T09:49:47.659Z,40.60
2018-10-17T09:52:16.301Z,40.00
2018-10-17T09:54:44.837Z,39.60
2018-10-17T09:57:13.413Z,39.30
2018-10-17T09:59:42.155Z,38.80
2018-10-17T10:02:11.078Z,38.60
2018-10-17T10:04:39.790Z,38.50
2018-10-17T10:07:08.369Z,38.10
2018-10-17T10:09:36.955Z,38.20
2018-10-17T10:12:06.048Z,37.80
2018-10-17T10:14:35.147Z,38.00
2018-10-17T10:17:05.327Z,37.90
2018-10-17T10:19:33.854Z,37.60
2018-10-17T10:22:02.435Z,37.50
2018-10-17T10:24:31.103Z,37.70
2018-10-17T10:27:00.247Z,37.70
2018-10-17T10:29:29.009Z,38.00
2018-10-17T10:31:57.583Z,37.50
2018-10-17T10:34:27.709Z,37.70
2018-10-17T10:36:56.237Z,37.40
2018-10-17T10:39:24.871Z,37.20
2018-10-17T10:41:53.495Z,37.30
2018-10-17T10:44:22.106Z,37.20
2018-10-17T10:46:50.905Z,37.10
2018-10-17T10:49:19.538Z,37.30
2018-10-17T10:51:48.263Z,37.50
2018-10-17T10:54:16.888Z,37.40
2018-10-17T10:56:45.436Z,37.70
2018-10-17T10:59:14.842Z,37.80
2018-10-17T11:01:43.358Z,37.70
2018-10-17T11:04:11.927Z,38.10
2018-10-17T11:06:40.518Z,38.50
2018-10-17T11:09:09.919Z,38.40
2018-10-17T11:11:38.917Z,39.10
2018-10-17T11:14:08.115Z,38.90
2018-10-17T11:16:36.632Z,39.00
2018-10-17T11:19:05.479Z,40.30
2018-10-17T11:21:34.105Z,41.30
2018-10-17T11:24:02.673Z,41.30
2018-10-17T11:26:31.357Z,41.20
2018-10-17T11:28:59.959Z,41.20
2018-10-17T11:31:28.563Z,41.20
2018-10-17T11:33:57.051Z,41.20
2018-10-17T11:36:25.609Z,41.20
2018-10-17T11:38:54.339Z,41.20
2018-10-17T11:41:23.039Z,41.20
2018-10-17T11:43:51.543Z,41.10
2018-10-17T11:46:20.409Z,41.10
2018-10-17T11:48:48.930Z,41.10
2018-10-17T11:51:17.582Z,41.10
2018-10-17T11:53:46.056Z,41.10
2018-10-17T11:56:14.658Z,41.10
2018-10-17T11:58:43.184Z,41.10
2018-10-17T12:01:11.912Z,41.10
2018-10-17T12:03:40.607Z,41.10
2018-10-17T12:06:09.714Z,41.10
2018-10-17T12:08:38.444Z,41.10
2018-10-17T12:11:07.062Z,41.20
2018-10-17T12:13:35.787Z,41.20
2018-10-17T12:16:04.648Z,41.20
2018-10-17T12:18:33.260Z,41.30
2018-10-17T12:21:01.910Z,41.30
2018-10-17T12:23:30.536Z,41.30
2018-10-17T12:25:59.100Z,41.30
2018-10-17T12:28:27.756Z,41.30
2018-10-17T12:30:56.243Z,41.30
2018-10-17T12:33:24.811Z,42.40
2018-10-17T12:35:53.338Z,41.40
2018-10-17T12:38:21.943Z,41.30
2018-10-17T12:40:50.618Z,41.50
2018-10-17T12:43:19.158Z,41.10
2018-10-17T12:45:47.838Z,40.20
2018-10-17T12:48:16.335Z,40.20
2018-10-17T12:50:44.865Z,40.30
2018-10-17T12:53:13.488Z,39.60
2018-10-17T12:55:42.015Z,39.70
2018-10-17T12:58:12.917Z,39.30
2018-10-17T13:00:41.457Z,39.40
2018-10-17T13:03:10.415Z,39.00
2018-10-17T13:05:38.963Z,39.10
2018-10-17T13:08:07.609Z,39.40
2018-10-17T13:10:36.129Z,39.50
2018-10-17T13:13:04.881Z,39.30
2018-10-17T13:15:33.488Z,38.50
2018-10-17T13:18:02.095Z,38.80
2018-10-17T13:20:30.858Z,39.30
2018-10-17T13:22:59.527Z,38.20
2018-10-17T13:25:28.030Z,38.50
2018-10-17T13:27:56.663Z,38.70
2018-10-17T13:30:25.215Z,38.90
2018-10-17T13:32:54.159Z,38.60
2018-10-17T13:35:22.739Z,38.90
2018-10-17T13:37:51.314Z,39.40
2018-10-17T13:40:20.061Z,38.40
2018-10-17T13:42:48.756Z,38.60
2018-10-17T13:45:17.317Z,38.60
2018-10-17T13:47:51.399Z,38.50
2018-10-17T13:50:21.520Z,38.60
2018-10-17T13:52:50.113Z,38.20
2018-10-17T13:55:18.785Z,38.30
2018-10-17T13:57:47.397Z,38.20
2018-10-17T14:00:15.949Z,38.00
2018-10-17T14:02:44.873Z,37.60
2018-10-17T14:05:14.087Z,37.30
2018-10-17T14:07:42.669Z,36.80
2018-10-17T14:10:11.262Z,36.40
2018-10-17T14:12:40.481Z,36.00
2018-10-17T14:15:09.100Z,36.00
2018-10-17T14:17:37.657Z,35.90
2018-10-17T14:20:06.676Z,35.60
2018-10-17T14:22:35.249Z,35.80
2018-10-17T14:25:03.821Z,35.70
2018-10-17T14:27:32.573Z,36.50
2018-10-17T14:30:01.130Z,36.70
2018-10-17T14:32:29.741Z,35.90
2018-10-17T14:34:58.472Z,35.90
2018-10-17T14:37:27.083Z,36.20
2018-10-17T14:39:55.605Z,36.20
2018-10-17T14:42:24.214Z,36.40
2018-10-17T14:44:52.743Z,36.80
2018-10-17T14:47:21.336Z,36.80
2018-10-17T14:49:49.868Z,37.10
2018-10-17T14:52:18.476Z,37.30
2018-10-17T14:54:46.983Z,37.30
2018-10-17T14:57:16.199Z,37.20
2018-10-17T14:59:44.733Z,37.30
2018-10-17T15:02:13.274Z,37.50
2018-10-17T15:04:41.833Z,37.40
2018-10-17T15:07:10.396Z,37.60
2018-10-17T15:09:39.007Z,38.00
2018-10-17T15:12:07.649Z,38.10
2018-10-17T15:14:36.183Z,38.20
2018-10-17T15:17:04.771Z,38.50
2018-10-17T15:19:33.633Z,38.60
2018-10-17T15:22:02.212Z,39.00
2018-10-17T15:24:30.774Z,39.30
2018-10-17T15:26:59.432Z,39.00
2018-10-17T15:29:28.081Z,39.30
2018-10-17T15:31:56.739Z,39.90
2018-10-17T15:34:25.535Z,40.20
2018-10-17T15:36:54.289Z,42.20
2018-10-17T15:39:22.892Z,41.30
2018-10-17T15:41:51.691Z,41.30
2018-10-17T15:44:20.332Z,42.00
2018-10-17T15:46:48.909Z,42.90
2018-10-17T15:49:17.535Z,42.70
2018-10-17T15:51:46.281Z,42.80
2018-10-17T15:54:14.983Z,42.80
2018-10-17T15:56:43.543Z,44.40
2018-10-17T15:59:12.082Z,46.00
2018-10-17T16:01:40.648Z,45.60
2018-10-17T16:04:09.381Z,45.90
2018-10-17T16:06:38.961Z,46.00
2018-10-17T16:09:10.849Z,46.40
2018-10-17T16:11:39.600Z,47.60
2018-10-17T16:14:08.237Z,47.40
2018-10-17T16:16:36.859Z,47.40
2018-10-17T16:19:05.505Z,48.40
2018-10-17T16:21:34.101Z,49.20
2018-10-17T16:24:02.805Z,49.90
2018-10-17T16:26:31.447Z,50.30
2018-10-17T16:29:00.273Z,50.70
2018-10-17T16:31:28.937Z,51.10
2018-10-17T16:33:57.548Z,51.70
2018-10-17T16:36:26.134Z,52.70
2018-10-17T16:38:54.709Z,53.70
2018-10-17T16:41:23.450Z,53.60
2018-10-17T16:43:52.067Z,53.60
2018-10-17T16:46:20.721Z,54.30
2018-10-17T16:48:49.301Z,55.30
2018-10-17T16:51:17.960Z,55.80
2018-10-17T16:53:46.535Z,56.00
2018-10-17T16:56:15.128Z,56.50
2018-10-17T16:58:44.464Z,57.00
2018-10-17T17:01:13.161Z,58.20
2018-10-17T17:03:41.750Z,57.70
2018-10-17T17:06:10.578Z,58.40
2018-10-17T17:08:39.986Z,59.30
2018-10-17T17:11:08.515Z,59.80
2018-10-17T17:13:37.090Z,59.80
2018-10-17T17:16:05.849Z,59.80
2018-10-17T17:18:35.113Z,59.70
2018-10-17T17:21:03.709Z,59.60
2018-10-17T17:23:32.317Z,60.10
2018-10-17T17:26:01.606Z,60.70
2018-10-17T17:28:30.260Z,61.30
2018-10-17T17:30:59.649Z,61.80
2018-10-17T17:33:28.437Z,62.00
2018-10-17T17:35:56.980Z,62.70
2018-10-17T17:38:25.586Z,63.70
2018-10-17T17:40:54.411Z,64.10
2018-10-17T17:43:23.125Z,64.10
2018-10-17T17:45:51.943Z,64.10
2018-10-17T17:48:20.676Z,64.10
2018-10-17T17:50:49.422Z,64.10
2018-10-17T17:53:18.186Z,64.40
2018-10-17T17:55:46.837Z,65.30
2018-10-17T17:58:15.598Z,65.60
2018-10-17T18:00:44.178Z,66.00
2018-10-17T18:03:12.891Z,66.20
2018-10-17T18:05:42.211Z,66.50
2018-10-17T18:08:10.776Z,66.30
2018-10-17T18:10:40.038Z,66.70
2018-10-17T18:13:08.631Z,66.70
2018-10-17T18:15:38.308Z,66.70
2018-10-17T18:18:06.927Z,67.00
2018-10-17T18:20:35.909Z,67.20
2018-10-17T18:23:05.487Z,67.80
2018-10-17T18:25:34.469Z,68.20
2018-10-17T18:28:03.454Z,68.30
2018-10-17T18:30:32.177Z,68.40
2018-10-17T18:33:00.903Z,68.80
2018-10-17T18:35:29.685Z,69.80
2018-10-17T18:37:58.987Z,69.70
2018-10-17T18:40:27.827Z,70.00
2018-10-17T18:42:56.646Z,71.00
2018-10-17T18:45:25.291Z,71.80
2018-10-17T18:47:53.977Z,72.10
2018-10-17T18:50:22.539Z,72.40
2018-10-17T18:52:52.250Z,72.70
2018-10-17T18:55:20.935Z,72.70
2018-10-17T18:57:49.526Z,71.90
2018-10-17T19:00:18.354Z,71.50
2018-10-17T19:02:47.231Z,72.40
2018-10-17T19:05:15.847Z,72.60
2018-10-17T19:07:44.510Z,71.90
2018-10-17T19:10:13.377Z,72.60
2018-10-17T19:12:42.063Z,72.50
2018-10-17T19:15:10.676Z,72.60
2018-10-17T19:17:39.277Z,73.20
2018-10-17T19:20:07.985Z,72.60
2018-10-17T19:22:36.593Z,73.40
2018-10-17T19:25:05.659Z,73.70
2018-10-17T19:27:35.349Z,73.50
2018-10-17T19:30:04.394Z,73.90
2018-10-17T19:32:34.637Z,74.30
2018-10-17T19:35:03.789Z,75.70
2018-10-17T19:37:32.380Z,75.70
2018-10-17T19:40:00.937Z,75.40
2018-10-17T19:42:29.779Z,75.20
2018-10-17T19:44:58.640Z,75.70
2018-10-17T19:47:27.644Z,75.60
2018-10-17T19:49:56.374Z,75.90
2018-10-17T19:52:24.953Z,76.80
2018-10-17T19:54:53.567Z,76.50
2018-10-17T19:57:22.333Z,76.70
2018-10-17T19:59:50.914Z,76.70
2018-10-17T20:02:19.622Z,76.70
2018-10-17T20:04:48.321Z,76.60
2018-10-17T20:07:16.931Z,76.90
2018-10-17T20:09:45.549Z,77.60
2018-10-17T20:12:14.141Z,77.70
2018-10-17T20:14:42.739Z,77.20
2018-10-17T20:17:12.538Z,77.90
2018-10-17T20:19:41.143Z,77.80
2018-10-17T20:22:10.858Z,77.50
2018-10-17T20:24:39.471Z,77.90
2018-10-17T20:27:08.786Z,78.90
2018-10-17T20:29:37.375Z,78.80
2018-10-17T20:32:06.712Z,79.60
2018-10-17T20:34:35.453Z,79.60
2018-10-17T20:37:04.080Z,79.30
2018-10-17T20:39:32.817Z,79.70
2018-10-17T20:42:01.667Z,80.20
2018-10-17T20:44:30.367Z,79.90
2018-10-17T20:46:59.072Z,80.00
2018-10-17T20:49:27.672Z,80.00
2018-10-17T20:51:56.269Z,79.30
2018-10-17T20:54:24.927Z,78.90
2018-10-17T20:56:54.193Z,79.30
2018-10-17T20:59:23.787Z,79.40
2018-10-17T21:01:52.453Z,79.00
2018-10-17T21:04:21.018Z,79.90
2018-10-17T21:06:49.589Z,79.70
2018-10-17T21:09:18.771Z,79.80
2018-10-17T21:11:47.409Z,80.30
2018-10-17T21:14:16.167Z,79.90
2018-10-17T21:16:44.944Z,80.10
2018-10-17T21:19:13.575Z,80.50
2018-10-17T21:21:42.163Z,80.40
2018-10-17T21:24:10.714Z,81.00
2018-10-17T21:26:39.362Z,81.50
2018-10-17T21:29:07.967Z,82.00
2018-10-17T21:31:37.150Z,81.60
2018-10-17T21:34:05.848Z,81.70
2018-10-17T21:36:34.570Z,81.40
2018-10-17T21:39:08.712Z,82.20
2018-10-17T21:41:37.369Z,82.20
2018-10-17T21:44:06.839Z,82.60
2018-10-17T21:46:35.409Z,82.60
2018-10-17T21:49:04.005Z,82.60
2018-10-17T21:51:33.081Z,82.00
2018-10-17T21:54:01.962Z,81.80
2018-10-17T21:56:30.575Z,82.00
2018-10-17T21:58:59.709Z,83.60
2018-10-17T22:01:28.327Z,84.20
2018-10-17T22:03:56.898Z,84.40
2018-10-17T22:06:25.512Z,84.40
2018-10-17T22:08:54.294Z,85.40
2018-10-17T22:11:22.865Z,85.70
2018-10-17T22:13:51.576Z,85.20
2018-10-17T22:16:20.101Z,86.30
2018-10-17T22:18:48.751Z,86.30
2018-10-17T22:21:17.271Z,85.50
2018-10-17T22:23:45.858Z,85.40
2018-10-17T22:26:14.626Z,86.20
2018-10-17T22:28:43.085Z,86.10
2018-10-17T22:31:11.641Z,85.70
2018-10-17T22:33:40.977Z,85.60
2018-10-17T22:36:09.726Z,86.50
2018-10-17T22:38:38.290Z,87.00
2018-10-17T22:41:06.887Z,86.70
2018-10-17T22:43:36.925Z,86.40
2018-10-17T22:46:05.731Z,86.90
2018-10-17T22:48:34.311Z,86.90
2018-10-17T22:51:02.893Z,86.10
2018-10-17T22:53:32.408Z,85.90
2018-10-17T22:56:01.068Z,85.70
2018-10-17T22:58:29.682Z,85.60
2018-10-17T23:00:58.220Z,86.00
2018-10-17T23:03:26.842Z,85.90
2018-10-17T23:05:55.360Z,85.40
2018-10-17T23:08:23.954Z,86.20
2018-10-17T23:10:52.482Z,85.80
2018-10-17T23:13:21.688Z,85.20
2018-10-17T23:15:50.196Z,86.80
2018-10-17T23:18:18.754Z,87.50
2018-10-17T23:20:47.262Z,88.30
2018-10-17T23:23:15.992Z,87.70
2018-10-17T23:25:44.548Z,88.20
2018-10-17T23:28:13.318Z,88.20
2018-10-17T23:30:41.886Z,88.20
2018-10-17T23:33:10.418Z,88.20
2018-10-17T23:35:39.300Z,89.40
2018-10-17T23:38:07.823Z,89.10
2018-10-17T23:40:36.442Z,89.50
2018-10-17T23:43:06.040Z,90.00
2018-10-17T23:45:34.644Z,90.10
2018-10-17T23:48:03.297Z,90.10
2018-10-17T23:50:31.880Z,88.10
2018-10-17T23:53:00.584Z,89.90
2018-10-17T23:55:29.119Z,90.00
2018-10-17T23:57:57.686Z,88.80
